Time;durP1;ratioP1;P1;durP2;ratioP2;P2;SDS_P1;SDS_P2;PMS_P1;PMS_P2;Temp;Humidity;BMP_temperature;BMP_pressure;BME280_temperature;BME280_humidity;BME280_pressure;Samples;Min_cycle;Max_cycle;Signal;HPM_P1;HPM_P2
2023/08/06 00:01:07;;;;;;;3.13;2.92;;;;;;;;;;5028702;28;20053;-87
2023/08/06 00:03:34;;;;;;;3.67;3.38;;;;;;;;;;5028489;28;20050;-87
2023/08/06 00:06:02;;;;;;;5.15;3.97;;;;;;;;;;5028403;28;20064;-87
2023/08/06 00:08:29;;;;;;;2.75;2.63;;;;;;;;;;5028016;28;20057;-88
2023/08/06 00:10:57;;;;;;;3.10;2.90;;;;;;;;;;5027604;28;20047;-87
2023/08/06 00:13:24;;;;;;;4.35;3.95;;;;;;;;;;5028977;28;20407;-87
2023/08/06 00:15:51;;;;;;;4.18;3.20;;;;;;;;;;5028672;28;20418;-87
2023/08/06 00:18:19;;;;;;;3.67;3.38;;;;;;;;;;5028283;28;20112;-87
2023/08/06 00:20:46;;;;;;;4.25;3.85;;;;;;;;;;5027672;28;20515;-88
2023/08/06 00:23:13;;;;;;;3.47;2.97;;;;;;;;;;5028170;28;20042;-85
2023/08/06 00:25:41;;;;;;;6.10;3.08;;;;;;;;;;5010262;28;20073;-86
2023/08/06 00:28:08;;;;;;;3.42;2.85;;;;;;;;;;5028085;28;20060;-85
2023/08/06 00:30:35;;;;;;;3.50;3.30;;;;;;;;;;5027878;28;20049;-85
2023/08/06 00:33:03;;;;;;;4.05;3.70;;;;;;;;;;5028424;28;20119;-85
2023/08/06 00:35:32;;;;;;;2.90;2.75;;;;;;;;;;5010405;28;20057;-85
2023/08/06 00:37:59;;;;;;;4.10;3.80;;;;;;;;;;5010120;28;20057;-85
2023/08/06 00:40:28;;;;;;;5.47;4.00;;;;;;;;;;5010203;28;20131;-85
2023/08/06 00:42:56;;;;;;;3.95;3.60;;;;;;;;;;5028191;28;20124;-85
2023/08/06 00:45:23;;;;;;;3.33;3.00;;;;;;;;;;5009836;28;20034;-86
2023/08/06 00:47:51;;;;;;;3.83;3.53;;;;;;;;;;5002783;28;20057;-85
2023/08/06 00:50:21;;;;;;;8.45;4.50;;;;;;;;;;5027804;28;20055;-85
2023/08/06 00:52:52;;;;;;;4.78;4.28;;;;;;;;;;5010385;28;20136;-86
2023/08/06 00:55:19;;;;;;;4.55;4.10;;;;;;;;;;5038090;28;20132;-85
2023/08/06 00:57:47;;;;;;;5.20;4.70;;;;;;;;;;5028249;28;20049;-85
2023/08/06 01:00:14;;;;;;;4.50;4.20;;;;;;;;;;5009886;28;20076;-86
2023/08/06 01:02:41;;;;;;;5.00;4.30;;;;;;;;;;5027621;28;20276;-85
2023/08/06 01:05:09;;;;;;;4.90;4.50;;;;;;;;;;5009914;28;20140;-85
2023/08/06 01:07:42;;;;;;;7.15;5.35;;;;;;;;;;5027637;28;20061;-85
2023/08/06 01:10:28;;;;;;;7.93;5.53;;;;;;;;;;5027596;28;20049;-86
2023/08/06 01:12:55;;;;;;;6.47;4.85;;;;;;;;;;5028213;28;20051;-86
2023/08/06 01:15:25;;;;;;;7.28;5.72;;;;;;;;;;5009773;28;20574;-86
2023/08/06 01:17:52;;;;;;;7.70;5.40;;;;;;;;;;5019553;28;20454;-86
2023/08/06 01:20:20;;;;;;;9.93;5.95;;;;;;;;;;5009417;28;20048;-86
2023/08/06 01:22:47;;;;;;;7.53;6.50;;;;;;;;;;5027706;28;20073;-86
2023/08/06 01:25:16;;;;;;;12.45;6.63;;;;;;;;;;5010025;28;20041;-86
2023/08/06 01:27:50;;;;;;;17.17;6.85;;;;;;;;;;5027459;28;20084;-86
2023/08/06 01:30:20;;;;;;;10.05;6.63;;;;;;;;;;5027619;28;20103;-86
2023/08/06 01:32:50;;;;;;;11.55;6.35;;;;;;;;;;5010424;28;20057;-86
2023/08/06 01:35:20;;;;;;;10.48;6.47;;;;;;;;;;5029409;28;20057;-86
2023/08/06 01:37:48;;;;;;;15.32;6.93;;;;;;;;;;5030628;28;20309;-86
2023/08/06 01:40:15;;;;;;;13.20;6.93;;;;;;;;;;5011583;28;20095;-86
2023/08/06 01:42:42;;;;;;;9.80;6.75;;;;;;;;;;5031008;28;20049;-86
2023/08/06 01:45:10;;;;;;;15.73;7.15;;;;;;;;;;5013460;28;20448;-87
2023/08/06 01:47:37;;;;;;;14.35;7.10;;;;;;;;;;5013311;28;20045;-86
2023/08/06 01:50:05;;;;;;;12.02;6.65;;;;;;;;;;5030974;28;20076;-86
2023/08/06 01:52:32;;;;;;;16.88;7.32;;;;;;;;;;5031068;28;20107;-86
2023/08/06 01:55:00;;;;;;;14.70;7.45;;;;;;;;;;5013532;28;20514;-86
2023/08/06 01:57:27;;;;;;;18.23;7.75;;;;;;;;;;5012792;28;20419;-86
2023/08/06 01:59:54;;;;;;;16.95;7.40;;;;;;;;;;5013081;28;20073;-86
2023/08/06 02:02:22;;;;;;;13.48;7.57;;;;;;;;;;5013505;28;20045;-86
2023/08/06 02:04:49;;;;;;;6.57;5.85;;;;;;;;;;5031419;28;20049;-86
2023/08/06 02:07:16;;;;;;;12.60;7.40;;;;;;;;;;5013105;28;20138;-86
2023/08/06 02:09:44;;;;;;;13.75;7.60;;;;;;;;;;5012390;28;20041;-86
2023/08/06 02:12:11;;;;;;;13.43;8.20;;;;;;;;;;5012934;28;20060;-86
2023/08/06 02:14:38;;;;;;;20.00;8.45;;;;;;;;;;5013114;28;20486;-86
2023/08/06 02:17:06;;;;;;;23.95;9.35;;;;;;;;;;4996670;28;20129;-86
2023/08/06 02:19:33;;;;;;;19.02;9.13;;;;;;;;;;5030259;28;20053;-86
2023/08/06 02:22:02;;;;;;;11.95;8.30;;;;;;;;;;5030914;28;20060;-86
2023/08/06 02:24:29;;;;;;;20.52;9.38;;;;;;;;;;5030632;28;20045;-86
2023/08/06 02:26:56;;;;;;;14.23;8.65;;;;;;;;;;5012497;28;20103;-86
2023/08/06 02:29:24;;;;;;;19.25;9.95;;;;;;;;;;5012452;28;20057;-86
2023/08/06 02:31:51;;;;;;;14.07;9.38;;;;;;;;;;5012724;28;20092;-86
2023/08/06 02:34:19;;;;;;;16.92;9.45;;;;;;;;;;5030502;28;20077;-86
2023/08/06 02:36:46;;;;;;;14.52;9.30;;;;;;;;;;5012488;28;20057;-86
2023/08/06 02:39:14;;;;;;;16.88;8.75;;;;;;;;;;5029942;28;20049;-86
2023/08/06 02:41:41;;;;;;;13.43;5.90;;;;;;;;;;5030127;28;20076;-86
2023/08/06 02:44:08;;;;;;;24.83;7.10;;;;;;;;;;5012844;28;20120;-85
2023/08/06 02:46:35;;;;;;;11.30;5.55;;;;;;;;;;5012224;28;20129;-85
2023/08/06 02:49:03;;;;;;;7.57;4.53;;;;;;;;;;5012150;28;20056;-86
2023/08/06 02:51:30;;;;;;;14.25;5.45;;;;;;;;;;5012058;28;20056;-86
2023/08/06 02:53:58;;;;;;;7.30;4.38;;;;;;;;;;5030463;28;20073;-85
2023/08/06 02:56:26;;;;;;;3.95;3.45;;;;;;;;;;5012468;28;20045;-86
2023/08/06 02:59:08;;;;;;;4.22;3.33;;;;;;;;;;5012158;28;20120;-86
2023/08/06 03:02:04;;;;;;;10.35;4.60;;;;;;;;;;5022544;28;20052;-86
2023/08/06 03:04:52;;;;;;;9.07;5.07;;;;;;;;;;5029292;28;20064;-86
2023/08/06 03:07:23;;;;;;;8.30;5.00;;;;;;;;;;5012241;28;20052;-86
2023/08/06 03:09:55;;;;;;;6.20;4.10;;;;;;;;;;5011820;28;20506;-86
2023/08/06 03:12:23;;;;;;;13.63;5.55;;;;;;;;;;5012087;28;20136;-86
2023/08/06 03:14:50;;;;;;;8.73;5.22;;;;;;;;;;5012220;28;20049;-86
2023/08/06 03:17:18;;;;;;;11.80;5.22;;;;;;;;;;5012213;28;20053;-86
2023/08/06 03:19:45;;;;;;;11.27;5.13;;;;;;;;;;5011501;28;20060;-87
2023/08/06 03:22:12;;;;;;;8.45;4.47;;;;;;;;;;5029480;28;20046;-86
2023/08/06 03:24:40;;;;;;;6.38;3.65;;;;;;;;;;5011847;28;20080;-86
2023/08/06 03:27:08;;;;;;;8.35;4.82;;;;;;;;;;5011729;28;20423;-86
2023/08/06 03:29:38;;;;;;;9.05;4.60;;;;;;;;;;5011782;28;20049;-86
2023/08/06 03:32:06;;;;;;;6.93;4.70;;;;;;;;;;5012077;28;20045;-86
2023/08/06 03:34:34;;;;;;;11.13;5.00;;;;;;;;;;5011908;28;20045;-87
2023/08/06 03:37:02;;;;;;;11.90;5.20;;;;;;;;;;5011260;28;20049;-86
2023/08/06 03:39:29;;;;;;;9.07;4.93;;;;;;;;;;5010568;28;20140;-87
2023/08/06 03:41:57;;;;;;;6.15;4.32;;;;;;;;;;4995356;28;20058;-87
2023/08/06 03:44:26;;;;;;;9.82;4.78;;;;;;;;;;5011900;28;20049;-87
2023/08/06 03:46:54;;;;;;;11.75;5.22;;;;;;;;;;5029034;28;20053;-87
2023/08/06 03:49:22;;;;;;;11.05;4.93;;;;;;;;;;5011081;28;20245;-87
2023/08/06 03:51:49;;;;;;;8.43;5.10;;;;;;;;;;5011113;28;20056;-87
2023/08/06 03:54:16;;;;;;;12.77;5.28;;;;;;;;;;5028793;28;20530;-87
2023/08/06 03:56:44;;;;;;;6.97;4.53;;;;;;;;;;5011046;28;20363;-87
2023/08/06 03:59:11;;;;;;;9.32;5.45;;;;;;;;;;5010465;28;20065;-87
2023/08/06 04:01:40;;;;;;;9.45;5.10;;;;;;;;;;5011318;28;20244;-87
2023/08/06 04:04:07;;;;;;;6.63;4.70;;;;;;;;;;5011306;28;20045;-87
2023/08/06 04:06:34;;;;;;;7.97;5.35;;;;;;;;;;5011346;28;20041;-87
2023/08/06 04:09:02;;;;;;;9.48;5.32;;;;;;;;;;5028114;28;20064;-87
2023/08/06 04:11:31;;;;;;;8.93;5.03;;;;;;;;;;5011015;28;20144;-87
2023/08/06 04:13:58;;;;;;;5.90;4.50;;;;;;;;;;4994693;28;20522;-87
2023/08/06 04:16:26;;;;;;;4.22;3.25;;;;;;;;;;4994493;28;20156;-87
2023/08/06 04:18:55;;;;;;;3.38;3.08;;;;;;;;;;5010615;28;20049;-87
2023/08/06 04:21:22;;;;;;;3.45;3.10;;;;;;;;;;5010972;28;20256;-88
2023/08/06 04:23:50;;;;;;;3.50;3.20;;;;;;;;;;5011264;28;20488;-88
2023/08/06 04:26:18;;;;;;;3.80;3.50;;;;;;;;;;5010787;28;20045;-88
2023/08/06 04:28:46;;;;;;;5.70;4.53;;;;;;;;;;5027975;28;20060;-87
2023/08/06 04:31:13;;;;;;;9.27;5.18;;;;;;;;;;5010577;28;20049;-87
2023/08/06 04:33:43;;;;;;;5.20;4.20;;;;;;;;;;5010769;28;20048;-87
2023/08/06 04:36:13;;;;;;;4.18;3.78;;;;;;;;;;5028528;28;20049;-88
2023/08/06 04:38:44;;;;;;;10.05;4.65;;;;;;;;;;5028141;28;20519;-87
2023/08/06 04:41:14;;;;;;;4.07;3.78;;;;;;;;;;5010213;28;20060;-87
2023/08/06 04:43:41;;;;;;;4.68;3.53;;;;;;;;;;5019203;28;20064;-87
2023/08/06 04:46:09;;;;;;;3.65;3.35;;;;;;;;;;5013174;28;20068;-87
2023/08/06 04:48:36;;;;;;;5.22;4.72;;;;;;;;;;5027969;28;20058;-86
2023/08/06 04:51:04;;;;;;;8.80;5.38;;;;;;;;;;5027875;28;20073;-86
2023/08/06 04:53:31;;;;;;;9.82;4.88;;;;;;;;;;5028071;28;20049;-86
2023/08/06 04:55:58;;;;;;;4.68;3.97;;;;;;;;;;4991603;28;20418;-86
2023/08/06 04:58:26;;;;;;;4.93;4.07;;;;;;;;;;5004813;28;20046;-87
2023/08/06 05:00:54;;;;;;;3.85;3.55;;;;;;;;;;5027787;28;20049;-87
2023/08/06 05:03:21;;;;;;;4.85;3.42;;;;;;;;;;5027869;28;20045;-86
2023/08/06 05:05:50;;;;;;;3.92;3.63;;;;;;;;;;5025764;28;20127;-86
2023/08/06 05:08:17;;;;;;;4.78;3.88;;;;;;;;;;5025670;28;20084;-87
2023/08/06 05:10:45;;;;;;;7.97;4.82;;;;;;;;;;5031685;28;20563;-86
2023/08/06 05:13:13;;;;;;;6.68;3.95;;;;;;;;;;5031813;28;20037;-87
2023/08/06 05:15:42;;;;;;;7.97;4.93;;;;;;;;;;5032408;28;20049;-86
2023/08/06 05:18:09;;;;;;;5.93;4.30;;;;;;;;;;5029272;28;20585;-86
2023/08/06 05:20:38;;;;;;;9.20;4.95;;;;;;;;;;5031442;28;20412;-86
2023/08/06 05:23:05;;;;;;;5.32;4.82;;;;;;;;;;5031116;28;20092;-86
2023/08/06 05:25:32;;;;;;;7.22;4.70;;;;;;;;;;5031346;28;20103;-86
2023/08/06 05:28:01;;;;;;;7.32;5.05;;;;;;;;;;5030332;28;20129;-84
2023/08/06 05:30:28;;;;;;;10.40;5.65;;;;;;;;;;5031055;28;20068;-84
2023/08/06 05:32:56;;;;;;;3.63;3.30;;;;;;;;;;5030023;28;20144;-86
2023/08/06 05:35:24;;;;;;;4.25;3.78;;;;;;;;;;5031502;28;20136;-86
2023/08/06 05:37:51;;;;;;;4.15;3.70;;;;;;;;;;5030633;28;20056;-85
2023/08/06 05:40:27;;;;;;;4.53;4.13;;;;;;;;;;5013015;28;20050;-85
2023/08/06 05:42:55;;;;;;;3.53;3.22;;;;;;;;;;5028972;28;20052;-85
2023/08/06 05:45:22;;;;;;;3.97;3.67;;;;;;;;;;5031500;28;20107;-85
2023/08/06 05:47:49;;;;;;;3.25;2.95;;;;;;;;;;5028045;28;20045;-87
2023/08/06 05:50:17;;;;;;;3.03;2.83;;;;;;;;;;5030162;28;20041;-84
2023/08/06 05:52:44;;;;;;;3.63;3.28;;;;;;;;;;5023140;28;20064;-85
2023/08/06 05:55:12;;;;;;;3.28;2.95;;;;;;;;;;5025808;28;20070;-85
2023/08/06 05:57:40;;;;;;;3.10;2.90;;;;;;;;;;5029829;28;20052;-85
2023/08/06 06:00:08;;;;;;;3.03;2.83;;;;;;;;;;5030309;28;20056;-85
2023/08/06 06:02:44;;;;;;;3.30;2.83;;;;;;;;;;5028699;28;20060;-85
2023/08/06 06:05:12;;;;;;;3.60;3.30;;;;;;;;;;5013791;28;20047;-84
2023/08/06 06:07:39;;;;;;;3.80;3.50;;;;;;;;;;5030703;28;20056;-84
2023/08/06 06:10:07;;;;;;;3.50;3.22;;;;;;;;;;5030387;28;20586;-84
2023/08/06 06:12:35;;;;;;;6.22;4.03;;;;;;;;;;5030782;28;20053;-84
2023/08/06 06:15:03;;;;;;;3.63;3.35;;;;;;;;;;5031043;28;20137;-85
2023/08/06 06:17:30;;;;;;;3.70;3.08;;;;;;;;;;5030514;28;20046;-84
2023/08/06 06:19:58;;;;;;;5.32;2.63;;;;;;;;;;5030033;28;20054;-85
2023/08/06 06:22:25;;;;;;;4.00;3.55;;;;;;;;;;5029938;28;20056;-84
2023/08/06 06:24:52;;;;;;;3.50;3.20;;;;;;;;;;5028541;28;20049;-85
2023/08/06 06:27:20;;;;;;;4.85;2.90;;;;;;;;;;5012751;28;20049;-84
2023/08/06 06:29:47;;;;;;;3.13;2.85;;;;;;;;;;5030201;28;20056;-84
2023/08/06 06:32:14;;;;;;;3.05;2.40;;;;;;;;;;5030262;28;20511;-84
2023/08/06 06:34:42;;;;;;;2.40;2.30;;;;;;;;;;5013073;28;20099;-84
2023/08/06 06:37:09;;;;;;;5.65;2.92;;;;;;;;;;5011952;28;20056;-84
2023/08/06 06:39:36;;;;;;;2.33;2.22;;;;;;;;;;5031170;28;20057;-84
2023/08/06 06:42:04;;;;;;;2.90;2.70;;;;;;;;;;5029888;28;20069;-85
2023/08/06 06:44:37;;;;;;;3.22;3.00;;;;;;;;;;5012251;28;20387;-85
2023/08/06 06:47:04;;;;;;;3.58;2.38;;;;;;;;;;5029612;28;20614;-85
2023/08/06 06:49:32;;;;;;;2.40;2.30;;;;;;;;;;5028714;28;20132;-85
2023/08/06 06:51:59;;;;;;;2.45;2.35;;;;;;;;;;5011314;28;20095;-86
2023/08/06 06:54:26;;;;;;;2.80;2.60;;;;;;;;;;5030024;28;20529;-85
2023/08/06 06:56:54;;;;;;;3.47;2.53;;;;;;;;;;5030222;28;20077;-86
2023/08/06 06:59:21;;;;;;;3.10;2.72;;;;;;;;;;5011944;28;20495;-85
2023/08/06 07:01:48;;;;;;;3.38;3.10;;;;;;;;;;5029771;28;20431;-85
2023/08/06 07:04:16;;;;;;;2.63;2.42;;;;;;;;;;5028566;28;20045;-87
2023/08/06 07:06:49;;;;;;;3.83;3.45;;;;;;;;;;5026655;28;20538;-86
2023/08/06 07:09:16;;;;;;;2.55;2.38;;;;;;;;;;5029805;28;20045;-85
2023/08/06 07:11:51;;;;;;;2.78;2.40;;;;;;;;;;5012367;28;20041;-86
2023/08/06 07:14:19;;;;;;;2.70;2.50;;;;;;;;;;5030236;28;20041;-85
2023/08/06 07:16:47;;;;;;;2.95;2.67;;;;;;;;;;5018663;28;20099;-86
2023/08/06 07:19:15;;;;;;;4.38;3.00;;;;;;;;;;5030310;28;20042;-86
2023/08/06 07:21:42;;;;;;;2.90;2.47;;;;;;;;;;5012494;28;20432;-84
2023/08/06 07:24:09;;;;;;;4.32;2.22;;;;;;;;;;5029709;28;20047;-84
2023/08/06 07:26:37;;;;;;;2.40;2.30;;;;;;;;;;5029667;28;20423;-85
2023/08/06 07:29:04;;;;;;;2.40;2.30;;;;;;;;;;5028793;28;20042;-85
2023/08/06 07:31:32;;;;;;;2.30;2.20;;;;;;;;;;5029523;28;20427;-84
2023/08/06 07:33:59;;;;;;;3.40;2.50;;;;;;;;;;5028991;28;20056;-84
2023/08/06 07:36:26;;;;;;;2.30;2.20;;;;;;;;;;5029027;28;20541;-84
2023/08/06 07:38:56;;;;;;;3.67;2.35;;;;;;;;;;5028334;28;20056;-84
2023/08/06 07:41:24;;;;;;;2.10;2.00;;;;;;;;;;5029081;28;20125;-84
2023/08/06 07:43:51;;;;;;;2.67;2.47;;;;;;;;;;5028729;28;20123;-85
2023/08/06 07:46:19;;;;;;;2.30;2.20;;;;;;;;;;5033158;23;20571;-81
2023/08/06 07:48:47;;;;;;;2.70;2.50;;;;;;;;;;4992371;28;20057;-81
2023/08/06 07:51:14;;;;;;;2.63;2.47;;;;;;;;;;4995180;28;20056;-80
2023/08/06 07:53:42;;;;;;;4.50;2.67;;;;;;;;;;4996501;28;20572;-80
2023/08/06 07:56:09;;;;;;;2.80;2.60;;;;;;;;;;4975214;28;20101;-81
2023/08/06 07:58:36;;;;;;;2.83;2.63;;;;;;;;;;4992248;28;20093;-80
2023/08/06 08:01:04;;;;;;;2.90;2.63;;;;;;;;;;4992351;28;20073;-80
2023/08/06 08:03:32;;;;;;;2.88;2.67;;;;;;;;;;4960085;28;20069;-81
2023/08/06 08:05:59;;;;;;;3.13;2.92;;;;;;;;;;4994504;28;20153;-80
2023/08/06 08:08:27;;;;;;;3.15;2.90;;;;;;;;;;4993158;28;20591;-80
2023/08/06 08:10:55;;;;;;;3.58;3.33;;;;;;;;;;4993056;28;20054;-80
2023/08/06 08:13:22;;;;;;;3.50;2.92;;;;;;;;;;4992822;28;20725;-81
2023/08/06 08:15:50;;;;;;;3.22;3.00;;;;;;;;;;4993097;28;20186;-80
2023/08/06 08:18:17;;;;;;;3.45;3.17;;;;;;;;;;4974881;28;20121;-81
2023/08/06 08:20:44;;;;;;;3.47;3.17;;;;;;;;;;4992310;28;20061;-78
2023/08/06 08:23:12;;;;;;;2.88;2.67;;;;;;;;;;4965599;28;20046;-79
2023/08/06 08:25:39;;;;;;;5.32;3.30;;;;;;;;;;4974796;28;20220;-79
2023/08/06 08:28:07;;;;;;;3.45;3.17;;;;;;;;;;4973973;28;20735;-79
2023/08/06 08:30:35;;;;;;;3.88;3.58;;;;;;;;;;4974851;28;20054;-78
2023/08/06 08:33:02;;;;;;;4.57;2.80;;;;;;;;;;4993396;28;20055;-78
2023/08/06 08:35:30;;;;;;;6.05;3.15;;;;;;;;;;4993559;28;20115;-79
2023/08/06 08:37:57;;;;;;;3.50;3.13;;;;;;;;;;4974984;28;20074;-78
2023/08/06 08:40:30;;;;;;;2.92;2.70;;;;;;;;;;4992910;28;20046;-81
2023/08/06 08:43:00;;;;;;;3.05;2.85;;;;;;;;;;4994474;28;20061;-80
2023/08/06 08:45:29;;;;;;;3.20;2.80;;;;;;;;;;4980062;28;20102;-79
2023/08/06 08:47:57;;;;;;;3.10;2.90;;;;;;;;;;4983818;28;20046;-80
2023/08/06 08:50:24;;;;;;;7.82;2.95;;;;;;;;;;4990974;28;20069;-80
2023/08/06 08:52:52;;;;;;;3.75;2.72;;;;;;;;;;5008572;28;20100;-80
2023/08/06 08:55:21;;;;;;;2.42;2.22;;;;;;;;;;4982766;28;20125;-79
2023/08/06 08:57:48;;;;;;;3.15;2.45;;;;;;;;;;5000128;28;20061;-80
2023/08/06 09:00:16;;;;;;;4.50;2.30;;;;;;;;;;4982425;28;20133;-79
2023/08/06 09:02:45;;;;;;;3.40;2.03;;;;;;;;;;4996220;28;20054;-79
2023/08/06 09:05:13;;;;;;;2.25;2.00;;;;;;;;;;4990186;28;20069;-79
2023/08/06 09:07:46;;;;;;;1.95;1.80;;;;;;;;;;4982482;28;20038;-79
2023/08/06 09:10:15;;;;;;;2.47;2.08;;;;;;;;;;4999538;28;20050;-80
2023/08/06 09:12:44;;;;;;;2.42;2.22;;;;;;;;;;5000480;28;20085;-80
2023/08/06 09:15:13;;;;;;;1.92;1.83;;;;;;;;;;4989542;28;20077;-80
2023/08/06 09:17:40;;;;;;;2.42;1.90;;;;;;;;;;4998712;28;20493;-78
2023/08/06 09:20:14;;;;;;;1.85;1.75;;;;;;;;;;4991047;28;20046;-80
2023/08/06 09:22:42;;;;;;;1.70;1.63;;;;;;;;;;4998094;28;20047;-79
2023/08/06 09:25:09;;;;;;;2.70;1.65;;;;;;;;;;4997807;28;20112;-79
2023/08/06 09:27:38;;;;;;;2.50;1.75;;;;;;;;;;4995863;28;20062;-80
2023/08/06 09:30:09;;;;;;;2.22;1.70;;;;;;;;;;4978994;28;20403;-79
2023/08/06 09:32:46;;;;;;;1.70;1.60;;;;;;;;;;4976619;28;20128;-78
2023/08/06 09:35:17;;;;;;;2.33;1.55;;;;;;;;;;4972471;28;20058;-78
2023/08/06 09:37:45;;;;;;;1.80;1.70;;;;;;;;;;4996025;28;20343;-79
2023/08/06 09:40:26;;;;;;;1.50;1.40;;;;;;;;;;4994941;28;20129;-78
2023/08/06 09:42:53;;;;;;;2.63;1.58;;;;;;;;;;4975656;28;20304;-78
2023/08/06 09:45:24;;;;;;;1.42;1.33;;;;;;;;;;4976188;28;20160;-80
2023/08/06 09:47:56;;;;;;;1.35;1.25;;;;;;;;;;4991111;28;20140;-78
2023/08/06 09:50:23;;;;;;;;;;;;;;;;;;4997340;28;20081;-79
2023/08/06 09:52:51;;;;;;;1.25;1.13;;;;;;;;;;4997548;28;20459;-79
2023/08/06 09:55:18;;;;;;;1.50;1.40;;;;;;;;;;4996386;28;20078;-79
2023/08/06 09:57:50;;;;;;;2.53;1.17;;;;;;;;;;4994644;28;20050;-79
2023/08/06 10:00:18;;;;;;;1.48;1.25;;;;;;;;;;4993842;28;20815;-79
2023/08/06 10:02:48;;;;;;;1.20;1.20;;;;;;;;;;4997629;28;20053;-80
2023/08/06 10:05:16;;;;;;;2.42;1.15;;;;;;;;;;4993754;28;20054;-80
2023/08/06 10:08:09;;;;;;;6.93;1.75;;;;;;;;;;4992991;28;20108;-78
2023/08/06 10:10:37;;;;;;;6.38;1.40;;;;;;;;;;4988149;28;20065;-79
2023/08/06 10:13:07;;;;;;;2.17;1.23;;;;;;;;;;4994179;28;20084;-78
2023/08/06 10:15:36;;;;;;;2.38;1.40;;;;;;;;;;4976666;28;20049;-78
2023/08/06 10:18:04;;;;;;;3.05;1.48;;;;;;;;;;4978873;28;20054;-79
2023/08/06 10:20:37;;;;;;;1.88;1.40;;;;;;;;;;4995898;28;20051;-78
2023/08/06 10:23:05;;;;;;;2.45;1.40;;;;;;;;;;4977095;28;20834;-79
2023/08/06 10:25:33;;;;;;;2.47;1.40;;;;;;;;;;4978820;28;20049;-79
2023/08/06 10:28:01;;;;;;;3.88;2.00;;;;;;;;;;4990238;28;20050;-80
2023/08/06 10:30:33;;;;;;;2.10;1.83;;;;;;;;;;4996259;28;20085;-80
2023/08/06 10:33:02;;;;;;;1.52;1.40;;;;;;;;;;4993967;28;20054;-79
2023/08/06 10:35:44;;;;;;;2.00;1.73;;;;;;;;;;4987534;28;20437;-80
2023/08/06 10:38:18;;;;;;;3.50;1.65;;;;;;;;;;5001726;28;20058;-80
2023/08/06 10:40:55;;;;;;;2.65;1.70;;;;;;;;;;4984973;28;20056;-79
2023/08/06 10:43:27;;;;;;;2.40;1.80;;;;;;;;;;4993287;28;20050;-79
2023/08/06 10:45:55;;;;;;;1.45;1.35;;;;;;;;;;4993739;28;20052;-80
2023/08/06 10:48:31;;;;;;;1.58;1.08;;;;;;;;;;4989364;28;20057;-81
2023/08/06 10:51:00;;;;;;;1.17;0.90;;;;;;;;;;4992830;28;20058;-79
2023/08/06 10:53:28;;;;;;;2.08;1.13;;;;;;;;;;4989340;28;20066;-80
2023/08/06 10:56:00;;;;;;;2.90;1.00;;;;;;;;;;4992686;28;20058;-79
2023/08/06 10:58:34;;;;;;;1.65;1.10;;;;;;;;;;4979905;28;20062;-80
2023/08/06 11:01:02;;;;;;;2.25;1.00;;;;;;;;;;4975217;28;20053;-79
2023/08/06 11:03:30;;;;;;;2.13;0.85;;;;;;;;;;4974794;28;20051;-80
2023/08/06 11:05:57;;;;;;;0.90;0.90;;;;;;;;;;4993084;28;20125;-79
2023/08/06 11:08:34;;;;;;;1.30;1.20;;;;;;;;;;4985085;28;20054;-79
2023/08/06 11:11:12;;;;;;;1.83;1.73;;;;;;;;;;4992085;28;20054;-80
2023/08/06 11:13:41;;;;;;;0.77;0.60;;;;;;;;;;4981957;28;20638;-80
2023/08/06 11:16:08;;;;;;;2.70;0.52;;;;;;;;;;4992290;28;20493;-80
2023/08/06 11:18:36;;;;;;;0.73;0.70;;;;;;;;;;4993555;28;20513;-79
2023/08/06 11:21:03;;;;;;;0.77;0.50;;;;;;;;;;4991950;28;20045;-81
2023/08/06 11:23:31;;;;;;;0.73;0.60;;;;;;;;;;4980187;28;20080;-79
2023/08/06 11:25:58;;;;;;;0.32;0.32;;;;;;;;;;4991872;28;20074;-80
2023/08/06 11:28:26;;;;;;;0.63;0.50;;;;;;;;;;4952369;28;20101;-79
2023/08/06 11:30:55;;;;;;;0.77;0.40;;;;;;;;;;4990444;28;20506;-79
2023/08/06 11:33:25;;;;;;;1.20;0.50;;;;;;;;;;4991174;28;20054;-80
2023/08/06 11:35:53;;;;;;;1.50;0.43;;;;;;;;;;4976291;28;20271;-79
2023/08/06 11:38:20;;;;;;;1.10;0.57;;;;;;;;;;4990336;28;20318;-79
2023/08/06 11:40:48;;;;;;;2.42;0.60;;;;;;;;;;4990842;28;20054;-79
2023/08/06 11:43:16;;;;;;;0.68;0.68;;;;;;;;;;4991246;28;20042;-79
2023/08/06 11:45:43;;;;;;;0.60;0.47;;;;;;;;;;4990061;28;20097;-80
2023/08/06 11:48:11;;;;;;;0.60;0.60;;;;;;;;;;4973910;28;20061;-81
2023/08/06 11:50:38;;;;;;;0.60;0.60;;;;;;;;;;4989151;28;20085;-80
2023/08/06 11:53:06;;;;;;;0.60;0.60;;;;;;;;;;4991675;28;20069;-79
2023/08/06 11:55:34;;;;;;;0.82;0.60;;;;;;;;;;4989844;28;20140;-79
2023/08/06 11:58:04;;;;;;;2.70;0.75;;;;;;;;;;4991684;28;20388;-78
2023/08/06 12:00:32;;;;;;;0.60;0.60;;;;;;;;;;4990110;28;20046;-80
2023/08/06 12:03:00;;;;;;;1.58;0.65;;;;;;;;;;4990326;28;20121;-79
2023/08/06 12:05:33;;;;;;;0.55;0.55;;;;;;;;;;4966888;28;20302;-78
2023/08/06 12:08:01;;;;;;;0.47;0.47;;;;;;;;;;4989661;28;20051;-78
2023/08/06 12:10:30;;;;;;;1.30;0.60;;;;;;;;;;4971237;28;20510;-78
2023/08/06 12:12:57;;;;;;;109.13;13.45;;;;;;;;;;4970860;28;20046;-78
2023/08/06 12:15:27;;;;;;;0.70;0.50;;;;;;;;;;4990355;28;20061;-80
2023/08/06 12:17:56;;;;;;;8.55;1.08;;;;;;;;;;4986895;28;20076;-78
2023/08/06 12:20:24;;;;;;;0.60;0.30;;;;;;;;;;4986636;28;20045;-80
2023/08/06 12:22:51;;;;;;;0.20;0.20;;;;;;;;;;4989817;28;20042;-79
2023/08/06 12:25:18;;;;;;;0.40;0.20;;;;;;;;;;4989312;28;20069;-79
2023/08/06 12:27:47;;;;;;;0.20;0.20;;;;;;;;;;4989717;28;20501;-80
2023/08/06 12:30:14;;;;;;;0.25;0.25;;;;;;;;;;4989546;28;20058;-79
2023/08/06 12:32:41;;;;;;;0.20;0.20;;;;;;;;;;4991761;28;20054;-79
2023/08/06 12:35:09;;;;;;;0.70;0.20;;;;;;;;;;4992797;28;20104;-80
2023/08/06 12:37:38;;;;;;;0.90;0.25;;;;;;;;;;4991522;28;20054;-80
2023/08/06 12:40:06;;;;;;;0.55;0.28;;;;;;;;;;4994026;28;20042;-79
2023/08/06 12:42:54;;;;;;;1.67;0.28;;;;;;;;;;5049890;22;20066;-73
2023/08/06 12:45:21;;;;;;;0.10;0.10;;;;;;;;;;5060512;28;20049;-75
2023/08/06 12:47:49;;;;;;;0.20;0.20;;;;;;;;;;5058604;28;20079;-73
2023/08/06 12:50:17;;;;;;;2.05;0.40;;;;;;;;;;5024672;28;20049;-74
2023/08/06 12:52:47;;;;;;;0.38;0.17;;;;;;;;;;5042659;28;20450;-74
2023/08/06 12:55:14;;;;;;;2.92;0.43;;;;;;;;;;5043320;28;20126;-74
2023/08/06 12:57:41;;;;;;;0.45;0.20;;;;;;;;;;5032286;28;20049;-74
2023/08/06 13:00:24;;;;;;;2.95;0.20;;;;;;;;;;5031831;28;20068;-74
2023/08/06 13:02:51;;;;;;;0.20;0.20;;;;;;;;;;5040439;28;20045;-74
2023/08/06 13:05:19;;;;;;;0.20;0.20;;;;;;;;;;5037219;28;20036;-74
2023/08/06 13:07:47;;;;;;;0.20;0.20;;;;;;;;;;5036073;28;20052;-74
2023/08/06 13:10:14;;;;;;;0.63;0.17;;;;;;;;;;5038916;28;20076;-74
2023/08/06 13:12:42;;;;;;;16.27;1.92;;;;;;;;;;5039164;28;20384;-74
2023/08/06 13:15:09;;;;;;;0.22;0.22;;;;;;;;;;5040351;28;20048;-75
2023/08/06 13:17:37;;;;;;;2.95;0.30;;;;;;;;;;5041538;28;20052;-75
2023/08/06 13:20:06;;;;;;;1.30;0.40;;;;;;;;;;5042351;28;20457;-74
2023/08/06 13:22:33;;;;;;;2.55;2.20;;;;;;;;;;5022422;28;20205;-74
2023/08/06 13:25:01;;;;;;;0.35;0.35;;;;;;;;;;5042306;28;20041;-75
2023/08/06 13:27:28;;;;;;;0.43;0.20;;;;;;;;;;5042141;28;20265;-74
2023/08/06 13:29:56;;;;;;;0.20;0.20;;;;;;;;;;5041359;28;20060;-74
2023/08/06 13:32:23;;;;;;;0.10;0.10;;;;;;;;;;5039659;28;20033;-75
2023/08/06 13:34:50;;;;;;;5.15;0.20;;;;;;;;;;5044277;28;20471;-75
2023/08/06 13:37:18;;;;;;;1.10;0.20;;;;;;;;;;5045345;28;20128;-75
2023/08/06 13:39:45;;;;;;;0.60;0.10;;;;;;;;;;5042962;28;20037;-74
2023/08/06 13:42:13;;;;;;;0.30;0.30;;;;;;;;;;5027596;28;20048;-74
2023/08/06 13:44:40;;;;;;;0.90;0.20;;;;;;;;;;5035195;28;20049;-74
2023/08/06 13:47:08;;;;;;;0.10;0.10;;;;;;;;;;5035616;28;20037;-74
2023/08/06 13:49:35;;;;;;;1.65;0.13;;;;;;;;;;5037043;28;20262;-74
2023/08/06 13:52:03;;;;;;;3.30;0.20;;;;;;;;;;5043208;28;20131;-75
2023/08/06 13:54:48;;;;;;;1.13;0.20;;;;;;;;;;5039719;28;20060;-74
2023/08/06 13:57:17;;;;;;;1.38;0.20;;;;;;;;;;5045977;28;20498;-75
2023/08/06 13:59:45;;;;;;;1.50;0.50;;;;;;;;;;5045475;28;20053;-74
2023/08/06 14:02:13;;;;;;;5.30;0.30;;;;;;;;;;5047177;28;20273;-75
2023/08/06 14:04:41;;;;;;;0.30;0.30;;;;;;;;;;5050100;28;20055;-75
2023/08/06 14:07:08;;;;;;;0.65;0.30;;;;;;;;;;5047164;28;20041;-74
2023/08/06 14:09:35;;;;;;;1.55;0.35;;;;;;;;;;5046279;28;20083;-75
2023/08/06 14:12:03;;;;;;;0.68;0.30;;;;;;;;;;5046934;28;20106;-75
2023/08/06 14:14:31;;;;;;;2.20;0.40;;;;;;;;;;5047953;28;20052;-75
2023/08/06 14:16:58;;;;;;;1.33;0.50;;;;;;;;;;5028996;28;20494;-74
2023/08/06 14:19:26;;;;;;;0.32;0.32;;;;;;;;;;5045708;28;20471;-75
2023/08/06 14:21:55;;;;;;;0.65;0.30;;;;;;;;;;5047025;28;20059;-76
2023/08/06 14:24:22;;;;;;;0.90;0.30;;;;;;;;;;5046973;28;20426;-76
2023/08/06 14:26:50;;;;;;;0.30;0.30;;;;;;;;;;5026925;28;20060;-75
2023/08/06 14:29:17;;;;;;;1.08;0.30;;;;;;;;;;5044750;28;20098;-75
2023/08/06 14:31:44;;;;;;;0.32;0.30;;;;;;;;;;5043918;28;20463;-76
2023/08/06 14:34:12;;;;;;;2.58;0.20;;;;;;;;;;5046686;28;20084;-74
2023/08/06 14:36:41;;;;;;;0.40;0.30;;;;;;;;;;5046378;28;20510;-75
2023/08/06 14:39:09;;;;;;;1.98;0.35;;;;;;;;;;5044920;28;20059;-75
2023/08/06 14:41:38;;;;;;;0.43;0.20;;;;;;;;;;5044030;28;20183;-75
2023/08/06 14:44:07;;;;;;;1.08;0.30;;;;;;;;;;5046535;28;20037;-77
2023/08/06 14:46:37;;;;;;;0.40;0.40;;;;;;;;;;5026348;28;20043;-75
2023/08/06 14:49:05;;;;;;;0.60;0.60;;;;;;;;;;5044483;28;20516;-77